sensor_id;sensor_type;location;lat;lon;timestamp;P1;durP1;ratioP1;P2;durP2;ratioP2
28772;SDS011;15925;51.222;5.678;2023-06-26T00:01:23;8.98;;;5.13;;
28772;SDS011;15925;51.222;5.678;2023-06-26T00:03:49;6.32;;;4.68;;
28772;SDS011;15925;51.222;5.678;2023-06-26T00:06:15;6.78;;;4.30;;
28772;SDS011;15925;51.222;5.678;2023-06-26T00:08:41;8.67;;;5.37;;
28772;SDS011;15925;51.222;5.678;2023-06-26T00:11:08;9.48;;;5.38;;
28772;SDS011;15925;51.222;5.678;2023-06-26T00:13:34;12.57;;;5.88;;
28772;SDS011;15925;51.222;5.678;2023-06-26T00:16:00;9.23;;;5.30;;
28772;SDS011;15925;51.222;5.678;2023-06-26T00:18:28;13.52;;;5.97;;
28772;SDS011;15925;51.222;5.678;2023-06-26T00:20:54;10.93;;;4.50;;
28772;SDS011;15925;51.222;5.678;2023-06-26T00:23:20;8.40;;;5.22;;
28772;SDS011;15925;51.222;5.678;2023-06-26T00:25:45;8.35;;;4.72;;
28772;SDS011;15925;51.222;5.678;2023-06-26T00:28:12;10.05;;;5.55;;
28772;SDS011;15925;51.222;5.678;2023-06-26T00:30:37;9.00;;;5.68;;
28772;SDS011;15925;51.222;5.678;2023-06-26T00:33:03;10.90;;;6.07;;
28772;SDS011;15925;51.222;5.678;2023-06-26T00:35:30;10.55;;;6.00;;
28772;SDS011;15925;51.222;5.678;2023-06-26T00:37:56;11.20;;;6.25;;
28772;SDS011;15925;51.222;5.678;2023-06-26T00:40:22;9.02;;;4.90;;
28772;SDS011;15925;51.222;5.678;2023-06-26T00:42:48;8.20;;;5.40;;
28772;SDS011;15925;51.222;5.678;2023-06-26T00:45:14;11.50;;;5.30;;
28772;SDS011;15925;51.222;5.678;2023-06-26T00:47:40;10.90;;;5.80;;
28772;SDS011;15925;51.222;5.678;2023-06-26T00:50:06;8.40;;;5.25;;
28772;SDS011;15925;51.222;5.678;2023-06-26T00:52:33;8.60;;;4.75;;
28772;SDS011;15925;51.222;5.678;2023-06-26T00:54:59;8.57;;;4.63;;
28772;SDS011;15925;51.222;5.678;2023-06-26T00:57:25;5.82;;;4.10;;
28772;SDS011;15925;51.222;5.678;2023-06-26T00:59:52;7.20;;;4.50;;
28772;SDS011;15925;51.222;5.678;2023-06-26T01:02:20;8.02;;;4.93;;
28772;SDS011;15925;51.222;5.678;2023-06-26T01:04:49;8.52;;;4.68;;
28772;SDS011;15925;51.222;5.678;2023-06-26T01:07:15;7.07;;;4.20;;
28772;SDS011;15925;51.222;5.678;2023-06-26T01:09:44;8.68;;;4.40;;
28772;SDS011;15925;51.222;5.678;2023-06-26T01:12:14;8.38;;;4.00;;
28772;SDS011;15925;51.222;5.678;2023-06-26T01:14:40;8.88;;;3.90;;
28772;SDS011;15925;51.222;5.678;2023-06-26T01:17:06;6.28;;;3.70;;
28772;SDS011;15925;51.222;5.678;2023-06-26T01:19:37;15.45;;;4.32;;
28772;SDS011;15925;51.222;5.678;2023-06-26T01:24:41;6.90;;;3.60;;
28772;SDS011;15925;51.222;5.678;2023-06-26T01:27:13;14.27;;;3.53;;
28772;SDS011;15925;51.222;5.678;2023-06-26T01:29:40;6.05;;;3.50;;
28772;SDS011;15925;51.222;5.678;2023-06-26T01:32:09;5.97;;;3.13;;
28772;SDS011;15925;51.222;5.678;2023-06-26T01:34:35;6.82;;;3.92;;
28772;SDS011;15925;51.222;5.678;2023-06-26T01:37:01;8.07;;;2.92;;
28772;SDS011;15925;51.222;5.678;2023-06-26T01:39:27;9.02;;;3.03;;
28772;SDS011;15925;51.222;5.678;2023-06-26T01:41:53;4.68;;;3.22;;
28772;SDS011;15925;51.222;5.678;2023-06-26T01:46:59;5.43;;;3.13;;
28772;SDS011;15925;51.222;5.678;2023-06-26T01:49:43;17.48;;;4.20;;
28772;SDS011;15925;51.222;5.678;2023-06-26T01:55:08;7.50;;;3.70;;
28772;SDS011;15925;51.222;5.678;2023-06-26T01:57:45;5.35;;;3.53;;
28772;SDS011;15925;51.222;5.678;2023-06-26T02:00:16;8.15;;;3.08;;
28772;SDS011;15925;51.222;5.678;2023-06-26T02:02:44;5.53;;;3.65;;
28772;SDS011;15925;51.222;5.678;2023-06-26T02:05:12;4.07;;;2.75;;
28772;SDS011;15925;51.222;5.678;2023-06-26T02:07:39;5.38;;;3.22;;
28772;SDS011;15925;51.222;5.678;2023-06-26T02:10:05;8.75;;;3.45;;
28772;SDS011;15925;51.222;5.678;2023-06-26T02:12:32;5.97;;;3.03;;
28772;SDS011;15925;51.222;5.678;2023-06-26T02:14:58;9.23;;;3.75;;
28772;SDS011;15925;51.222;5.678;2023-06-26T02:17:24;5.50;;;3.15;;
28772;SDS011;15925;51.222;5.678;2023-06-26T02:19:53;4.90;;;2.95;;
28772;SDS011;15925;51.222;5.678;2023-06-26T02:22:19;7.13;;;2.73;;
28772;SDS011;15925;51.222;5.678;2023-06-26T02:24:46;3.17;;;2.10;;
28772;SDS011;15925;51.222;5.678;2023-06-26T02:27:12;5.70;;;2.28;;
28772;SDS011;15925;51.222;5.678;2023-06-26T02:29:38;3.90;;;2.28;;
28772;SDS011;15925;51.222;5.678;2023-06-26T02:32:07;5.22;;;2.38;;
28772;SDS011;15925;51.222;5.678;2023-06-26T02:34:33;5.00;;;2.80;;
28772;SDS011;15925;51.222;5.678;2023-06-26T02:37:00;4.75;;;2.78;;
28772;SDS011;15925;51.222;5.678;2023-06-26T02:39:26;10.70;;;2.05;;
28772;SDS011;15925;51.222;5.678;2023-06-26T02:41:53;6.43;;;2.20;;
28772;SDS011;15925;51.222;5.678;2023-06-26T02:44:20;5.25;;;2.17;;
28772;SDS011;15925;51.222;5.678;2023-06-26T02:46:47;3.60;;;1.80;;
28772;SDS011;15925;51.222;5.678;2023-06-26T02:49:12;7.33;;;2.33;;
28772;SDS011;15925;51.222;5.678;2023-06-26T02:51:38;5.45;;;2.25;;
28772;SDS011;15925;51.222;5.678;2023-06-26T02:54:11;6.57;;;2.60;;
28772;SDS011;15925;51.222;5.678;2023-06-26T02:56:41;6.05;;;2.13;;
28772;SDS011;15925;51.222;5.678;2023-06-26T02:59:08;2.90;;;1.77;;
28772;SDS011;15925;51.222;5.678;2023-06-26T03:01:34;4.00;;;1.50;;
28772;SDS011;15925;51.222;5.678;2023-06-26T03:04:00;11.55;;;2.45;;
28772;SDS011;15925;51.222;5.678;2023-06-26T03:06:26;3.63;;;1.85;;
28772;SDS011;15925;51.222;5.678;2023-06-26T03:08:53;3.22;;;1.83;;
28772;SDS011;15925;51.222;5.678;2023-06-26T03:11:19;6.45;;;1.90;;
28772;SDS011;15925;51.222;5.678;2023-06-26T03:13:45;4.00;;;1.90;;
28772;SDS011;15925;51.222;5.678;2023-06-26T03:16:11;5.80;;;2.13;;
28772;SDS011;15925;51.222;5.678;2023-06-26T03:18:37;10.38;;;2.10;;
28772;SDS011;15925;51.222;5.678;2023-06-26T03:21:03;4.80;;;2.65;;
28772;SDS011;15925;51.222;5.678;2023-06-26T03:23:30;4.80;;;2.30;;
28772;SDS011;15925;51.222;5.678;2023-06-26T03:25:56;3.60;;;1.83;;
28772;SDS011;15925;51.222;5.678;2023-06-26T03:28:25;3.80;;;2.30;;
28772;SDS011;15925;51.222;5.678;2023-06-26T03:30:51;3.08;;;1.85;;
28772;SDS011;15925;51.222;5.678;2023-06-26T03:33:17;3.22;;;1.80;;
28772;SDS011;15925;51.222;5.678;2023-06-26T03:35:43;4.68;;;1.75;;
28772;SDS011;15925;51.222;5.678;2023-06-26T03:38:12;7.20;;;2.03;;
28772;SDS011;15925;51.222;5.678;2023-06-26T03:40:40;7.72;;;1.52;;
28772;SDS011;15925;51.222;5.678;2023-06-26T03:43:06;3.63;;;1.77;;
28772;SDS011;15925;51.222;5.678;2023-06-26T03:45:42;2.20;;;1.25;;
28772;SDS011;15925;51.222;5.678;2023-06-26T03:48:08;2.57;;;1.23;;
28772;SDS011;15925;51.222;5.678;2023-06-26T03:50:35;6.65;;;2.10;;
28772;SDS011;15925;51.222;5.678;2023-06-26T03:53:01;6.68;;;1.60;;
28772;SDS011;15925;51.222;5.678;2023-06-26T03:55:27;2.42;;;1.58;;
28772;SDS011;15925;51.222;5.678;2023-06-26T03:57:53;2.70;;;1.90;;
28772;SDS011;15925;51.222;5.678;2023-06-26T04:00:20;7.97;;;2.47;;
28772;SDS011;15925;51.222;5.678;2023-06-26T04:02:45;4.05;;;1.77;;
28772;SDS011;15925;51.222;5.678;2023-06-26T04:05:12;16.35;;;1.63;;
28772;SDS011;15925;51.222;5.678;2023-06-26T04:07:38;6.95;;;2.03;;
28772;SDS011;15925;51.222;5.678;2023-06-26T04:10:05;9.32;;;1.42;;
28772;SDS011;15925;51.222;5.678;2023-06-26T04:12:33;8.20;;;2.00;;
28772;SDS011;15925;51.222;5.678;2023-06-26T04:14:58;5.43;;;2.20;;
28772;SDS011;15925;51.222;5.678;2023-06-26T04:17:24;2.97;;;1.60;;
28772;SDS011;15925;51.222;5.678;2023-06-26T04:19:50;5.43;;;2.00;;
28772;SDS011;15925;51.222;5.678;2023-06-26T04:22:15;4.40;;;1.67;;
28772;SDS011;15925;51.222;5.678;2023-06-26T04:24:41;7.50;;;1.98;;
28772;SDS011;15925;51.222;5.678;2023-06-26T04:27:08;6.53;;;1.80;;
28772;SDS011;15925;51.222;5.678;2023-06-26T04:29:34;4.37;;;1.77;;
28772;SDS011;15925;51.222;5.678;2023-06-26T04:32:00;3.97;;;1.60;;
28772;SDS011;15925;51.222;5.678;2023-06-26T04:34:26;6.40;;;2.47;;
28772;SDS011;15925;51.222;5.678;2023-06-26T04:36:52;4.03;;;1.95;;
28772;SDS011;15925;51.222;5.678;2023-06-26T04:39:18;8.35;;;2.35;;
28772;SDS011;15925;51.222;5.678;2023-06-26T04:41:44;3.20;;;1.52;;
28772;SDS011;15925;51.222;5.678;2023-06-26T04:44:10;8.65;;;2.50;;
28772;SDS011;15925;51.222;5.678;2023-06-26T04:46:39;4.32;;;1.38;;
28772;SDS011;15925;51.222;5.678;2023-06-26T04:49:09;2.97;;;1.98;;
28772;SDS011;15925;51.222;5.678;2023-06-26T04:51:35;13.45;;;2.90;;
28772;SDS011;15925;51.222;5.678;2023-06-26T04:54:08;4.05;;;1.70;;
28772;SDS011;15925;51.222;5.678;2023-06-26T04:56:35;3.85;;;1.27;;
28772;SDS011;15925;51.222;5.678;2023-06-26T04:59:02;5.53;;;1.90;;
28772;SDS011;15925;51.222;5.678;2023-06-26T05:01:28;5.82;;;1.60;;
28772;SDS011;15925;51.222;5.678;2023-06-26T05:03:55;3.65;;;2.13;;
28772;SDS011;15925;51.222;5.678;2023-06-26T05:06:22;7.00;;;2.10;;
28772;SDS011;15925;51.222;5.678;2023-06-26T05:08:48;4.25;;;2.33;;
28772;SDS011;15925;51.222;5.678;2023-06-26T05:11:13;8.40;;;2.37;;
28772;SDS011;15925;51.222;5.678;2023-06-26T05:13:39;10.37;;;2.10;;
28772;SDS011;15925;51.222;5.678;2023-06-26T05:16:05;3.80;;;2.03;;
28772;SDS011;15925;51.222;5.678;2023-06-26T05:18:34;4.05;;;1.58;;
28772;SDS011;15925;51.222;5.678;2023-06-26T05:23:26;8.85;;;1.88;;
28772;SDS011;15925;51.222;5.678;2023-06-26T05:25:56;7.53;;;1.73;;
28772;SDS011;15925;51.222;5.678;2023-06-26T05:28:22;5.28;;;1.30;;
28772;SDS011;15925;51.222;5.678;2023-06-26T05:30:52;12.15;;;2.25;;
28772;SDS011;15925;51.222;5.678;2023-06-26T05:33:19;4.10;;;2.10;;
28772;SDS011;15925;51.222;5.678;2023-06-26T05:35:48;4.65;;;1.88;;
28772;SDS011;15925;51.222;5.678;2023-06-26T05:38:15;5.20;;;1.92;;
28772;SDS011;15925;51.222;5.678;2023-06-26T05:40:41;9.75;;;2.78;;
28772;SDS011;15925;51.222;5.678;2023-06-26T05:43:08;7.20;;;2.08;;
28772;SDS011;15925;51.222;5.678;2023-06-26T05:45:34;6.65;;;2.03;;
28772;SDS011;15925;51.222;5.678;2023-06-26T05:48:00;7.28;;;1.75;;
28772;SDS011;15925;51.222;5.678;2023-06-26T05:50:26;6.45;;;2.45;;
28772;SDS011;15925;51.222;5.678;2023-06-26T05:52:53;16.95;;;3.38;;
28772;SDS011;15925;51.222;5.678;2023-06-26T05:55:19;10.48;;;2.38;;
28772;SDS011;15925;51.222;5.678;2023-06-26T05:57:46;8.05;;;3.33;;
28772;SDS011;15925;51.222;5.678;2023-06-26T06:00:13;4.97;;;2.25;;
28772;SDS011;15925;51.222;5.678;2023-06-26T06:02:39;11.07;;;1.83;;
28772;SDS011;15925;51.222;5.678;2023-06-26T06:05:06;7.55;;;2.00;;
28772;SDS011;15925;51.222;5.678;2023-06-26T06:07:32;7.60;;;1.92;;
28772;SDS011;15925;51.222;5.678;2023-06-26T06:12:25;2.72;;;1.30;;
28772;SDS011;15925;51.222;5.678;2023-06-26T06:14:51;21.92;;;2.30;;
28772;SDS011;15925;51.222;5.678;2023-06-26T06:17:17;3.22;;;1.45;;
28772;SDS011;15925;51.222;5.678;2023-06-26T06:22:10;10.52;;;2.35;;
28772;SDS011;15925;51.222;5.678;2023-06-26T06:24:36;7.60;;;1.53;;
28772;SDS011;15925;51.222;5.678;2023-06-26T06:27:01;6.10;;;1.90;;
28772;SDS011;15925;51.222;5.678;2023-06-26T06:29:27;3.15;;;1.13;;
28772;SDS011;15925;51.222;5.678;2023-06-26T06:31:53;11.60;;;1.38;;
28772;SDS011;15925;51.222;5.678;2023-06-26T06:34:19;4.40;;;1.77;;
28772;SDS011;15925;51.222;5.678;2023-06-26T06:36:45;6.82;;;1.90;;
28772;SDS011;15925;51.222;5.678;2023-06-26T06:39:11;4.30;;;1.45;;
28772;SDS011;15925;51.222;5.678;2023-06-26T06:41:37;13.07;;;2.50;;
28772;SDS011;15925;51.222;5.678;2023-06-26T06:44:05;13.25;;;1.90;;
28772;SDS011;15925;51.222;5.678;2023-06-26T06:46:30;7.63;;;1.37;;
28772;SDS011;15925;51.222;5.678;2023-06-26T06:48:56;5.45;;;1.33;;
28772;SDS011;15925;51.222;5.678;2023-06-26T06:51:22;6.67;;;1.70;;
28772;SDS011;15925;51.222;5.678;2023-06-26T06:53:48;10.82;;;2.00;;
28772;SDS011;15925;51.222;5.678;2023-06-26T06:56:14;13.15;;;1.35;;
28772;SDS011;15925;51.222;5.678;2023-06-26T06:58:40;10.13;;;1.63;;
28772;SDS011;15925;51.222;5.678;2023-06-26T07:01:08;11.00;;;1.83;;
28772;SDS011;15925;51.222;5.678;2023-06-26T07:03:34;16.60;;;1.90;;
28772;SDS011;15925;51.222;5.678;2023-06-26T07:06:01;4.30;;;1.17;;
28772;SDS011;15925;51.222;5.678;2023-06-26T07:08:28;6.32;;;1.90;;
28772;SDS011;15925;51.222;5.678;2023-06-26T07:10:55;10.95;;;1.63;;
28772;SDS011;15925;51.222;5.678;2023-06-26T07:13:24;13.80;;;1.42;;
28772;SDS011;15925;51.222;5.678;2023-06-26T07:15:50;5.63;;;1.73;;
28772;SDS011;15925;51.222;5.678;2023-06-26T07:18:16;8.07;;;2.20;;
28772;SDS011;15925;51.222;5.678;2023-06-26T07:20:42;3.22;;;1.45;;
28772;SDS011;15925;51.222;5.678;2023-06-26T07:23:08;4.23;;;1.70;;
28772;SDS011;15925;51.222;5.678;2023-06-26T07:25:34;1.38;;;0.82;;
28772;SDS011;15925;51.222;5.678;2023-06-26T07:28:00;5.57;;;1.33;;
28772;SDS011;15925;51.222;5.678;2023-06-26T07:30:26;5.32;;;1.27;;
28772;SDS011;15925;51.222;5.678;2023-06-26T07:32:52;2.70;;;0.80;;
28772;SDS011;15925;51.222;5.678;2023-06-26T07:35:18;9.70;;;1.73;;
28772;SDS011;15925;51.222;5.678;2023-06-26T07:37:44;10.57;;;1.38;;
28772;SDS011;15925;51.222;5.678;2023-06-26T07:40:10;3.30;;;1.20;;
28772;SDS011;15925;51.222;5.678;2023-06-26T07:42:36;4.53;;;1.92;;
28772;SDS011;15925;51.222;5.678;2023-06-26T07:45:02;8.48;;;1.85;;
28772;SDS011;15925;51.222;5.678;2023-06-26T07:47:38;2.47;;;0.70;;
28772;SDS011;15925;51.222;5.678;2023-06-26T07:50:04;14.30;;;1.80;;
28772;SDS011;15925;51.222;5.678;2023-06-26T07:52:30;11.90;;;1.15;;
28772;SDS011;15925;51.222;5.678;2023-06-26T07:54:56;10.87;;;2.40;;
28772;SDS011;15925;51.222;5.678;2023-06-26T07:57:22;2.63;;;1.00;;
28772;SDS011;15925;51.222;5.678;2023-06-26T07:59:49;1.25;;;0.68;;
28772;SDS011;15925;51.222;5.678;2023-06-26T08:02:16;1.80;;;1.02;;
28772;SDS011;15925;51.222;5.678;2023-06-26T08:04:45;7.30;;;1.48;;
28772;SDS011;15925;51.222;5.678;2023-06-26T08:07:11;10.88;;;1.52;;
28772;SDS011;15925;51.222;5.678;2023-06-26T08:09:36;8.25;;;0.98;;
28772;SDS011;15925;51.222;5.678;2023-06-26T08:12:02;13.87;;;0.97;;
28772;SDS011;15925;51.222;5.678;2023-06-26T08:14:28;4.68;;;1.20;;
28772;SDS011;15925;51.222;5.678;2023-06-26T08:16:54;16.60;;;1.57;;
28772;SDS011;15925;51.222;5.678;2023-06-26T08:19:20;3.83;;;1.08;;
28772;SDS011;15925;51.222;5.678;2023-06-26T08:21:46;13.68;;;1.30;;
28772;SDS011;15925;51.222;5.678;2023-06-26T08:24:12;1.85;;;1.10;;
28772;SDS011;15925;51.222;5.678;2023-06-26T08:26:39;5.45;;;0.98;;
28772;SDS011;15925;51.222;5.678;2023-06-26T08:29:05;9.95;;;0.80;;
28772;SDS011;15925;51.222;5.678;2023-06-26T08:31:34;3.58;;;0.77;;
28772;SDS011;15925;51.222;5.678;2023-06-26T08:34:00;1.65;;;0.80;;
28772;SDS011;15925;51.222;5.678;2023-06-26T08:36:27;2.22;;;0.82;;
28772;SDS011;15925;51.222;5.678;2023-06-26T08:38:53;3.73;;;0.87;;
28772;SDS011;15925;51.222;5.678;2023-06-26T08:41:19;2.17;;;0.70;;
28772;SDS011;15925;51.222;5.678;2023-06-26T08:43:45;1.40;;;0.80;;
28772;SDS011;15925;51.222;5.678;2023-06-26T08:46:11;1.70;;;0.77;;
28772;SDS011;15925;51.222;5.678;2023-06-26T08:48:37;0.60;;;0.37;;
28772;SDS011;15925;51.222;5.678;2023-06-26T08:51:09;5.38;;;0.75;;
28772;SDS011;15925;51.222;5.678;2023-06-26T08:53:57;7.25;;;0.50;;
28772;SDS011;15925;51.222;5.678;2023-06-26T08:56:24;0.65;;;0.35;;
28772;SDS011;15925;51.222;5.678;2023-06-26T08:59:06;1.83;;;0.25;;
28772;SDS011;15925;51.222;5.678;2023-06-26T09:01:32;0.98;;;0.57;;
28772;SDS011;15925;51.222;5.678;2023-06-26T09:03:58;1.58;;;0.93;;
28772;SDS011;15925;51.222;5.678;2023-06-26T09:06:24;3.50;;;0.60;;
28772;SDS011;15925;51.222;5.678;2023-06-26T09:08:50;0.73;;;0.50;;
28772;SDS011;15925;51.222;5.678;2023-06-26T09:11:16;1.97;;;0.77;;
28772;SDS011;15925;51.222;5.678;2023-06-26T09:13:42;3.80;;;0.70;;
28772;SDS011;15925;51.222;5.678;2023-06-26T09:16:09;1.15;;;0.60;;
28772;SDS011;15925;51.222;5.678;2023-06-26T09:18:35;3.47;;;0.75;;
28772;SDS011;15925;51.222;5.678;2023-06-26T09:21:10;2.47;;;0.40;;
28772;SDS011;15925;51.222;5.678;2023-06-26T09:23:36;0.95;;;0.30;;
28772;SDS011;15925;51.222;5.678;2023-06-26T09:26:05;6.15;;;1.10;;
28772;SDS011;15925;51.222;5.678;2023-06-26T09:28:32;6.03;;;0.80;;
28772;SDS011;15925;51.222;5.678;2023-06-26T09:31:04;0.63;;;0.38;;
28772;SDS011;15925;51.222;5.678;2023-06-26T09:33:33;3.60;;;0.20;;
28772;SDS011;15925;51.222;5.678;2023-06-26T09:36:06;1.42;;;0.57;;
28772;SDS011;15925;51.222;5.678;2023-06-26T09:38:35;7.07;;;0.98;;
28772;SDS011;15925;51.222;5.678;2023-06-26T09:43:27;0.65;;;0.40;;
28772;SDS011;15925;51.222;5.678;2023-06-26T09:45:53;12.57;;;0.82;;
28772;SDS011;15925;51.222;5.678;2023-06-26T09:50:45;4.03;;;0.57;;
28772;SDS011;15925;51.222;5.678;2023-06-26T09:53:12;0.68;;;0.30;;
28772;SDS011;15925;51.222;5.678;2023-06-26T09:55:39;1.75;;;0.95;;
28772;SDS011;15925;51.222;5.678;2023-06-26T09:58:10;4.07;;;0.50;;
28772;SDS011;15925;51.222;5.678;2023-06-26T10:00:40;2.55;;;0.90;;
28772;SDS011;15925;51.222;5.678;2023-06-26T10:03:07;0.80;;;0.40;;
28772;SDS011;15925;51.222;5.678;2023-06-26T10:05:33;7.30;;;1.35;;
28772;SDS011;15925;51.222;5.678;2023-06-26T10:08:00;0.68;;;0.40;;
28772;SDS011;15925;51.222;5.678;2023-06-26T10:10:27;4.13;;;0.63;;
28772;SDS011;15925;51.222;5.678;2023-06-26T10:12:56;1.45;;;0.50;;
28772;SDS011;15925;51.222;5.678;2023-06-26T10:15:26;12.00;;;0.82;;
28772;SDS011;15925;51.222;5.678;2023-06-26T10:17:54;1.63;;;0.77;;
28772;SDS011;15925;51.222;5.678;2023-06-26T10:20:22;0.90;;;0.70;;
28772;SDS011;15925;51.222;5.678;2023-06-26T10:22:50;1.13;;;0.65;;
28772;SDS011;15925;51.222;5.678;2023-06-26T10:25:19;1.45;;;0.40;;
28772;SDS011;15925;51.222;5.678;2023-06-26T10:27:53;9.45;;;0.50;;
28772;SDS011;15925;51.222;5.678;2023-06-26T10:30:22;3.72;;;0.40;;
28772;SDS011;15925;51.222;5.678;2023-06-26T10:32:52;0.38;;;0.15;;
28772;SDS011;15925;51.222;5.678;2023-06-26T10:35:19;0.50;;;0.35;;
28772;SDS011;15925;51.222;5.678;2023-06-26T10:37:45;2.35;;;0.93;;
28772;SDS011;15925;51.222;5.678;2023-06-26T10:40:14;1.33;;;0.43;;
28772;SDS011;15925;51.222;5.678;2023-06-26T10:42:46;0.98;;;0.60;;
28772;SDS011;15925;51.222;5.678;2023-06-26T10:45:16;0.63;;;0.40;;
28772;SDS011;15925;51.222;5.678;2023-06-26T10:47:47;3.80;;;0.38;;
28772;SDS011;15925;51.222;5.678;2023-06-26T10:53:07;2.70;;;0.50;;
28772;SDS011;15925;51.222;5.678;2023-06-26T10:55:43;5.35;;;0.65;;
28772;SDS011;15925;51.222;5.678;2023-06-26T11:03:37;1.05;;;0.15;;
28772;SDS011;15925;51.222;5.678;2023-06-26T11:06:13;2.20;;;0.50;;
28772;SDS011;15925;51.222;5.678;2023-06-26T11:08:47;0.73;;;0.63;;
28772;SDS011;15925;51.222;5.678;2023-06-26T11:11:14;1.88;;;0.57;;
28772;SDS011;15925;51.222;5.678;2023-06-26T11:13:40;0.20;;;0.20;;
28772;SDS011;15925;51.222;5.678;2023-06-26T11:16:07;0.30;;;0.20;;
28772;SDS011;15925;51.222;5.678;2023-06-26T11:18:33;4.07;;;0.20;;
28772;SDS011;15925;51.222;5.678;2023-06-26T11:21:09;1.30;;;0.35;;
28772;SDS011;15925;51.222;5.678;2023-06-26T11:26:17;3.17;;;0.77;;
28772;SDS011;15925;51.222;5.678;2023-06-26T11:28:55;0.57;;;0.40;;
28772;SDS011;15925;51.222;5.678;2023-06-26T11:31:25;1.25;;;0.47;;
28772;SDS011;15925;51.222;5.678;2023-06-26T11:34:02;4.07;;;0.30;;
28772;SDS011;15925;51.222;5.678;2023-06-26T11:36:30;5.47;;;0.82;;
28772;SDS011;15925;51.222;5.678;2023-06-26T11:39:00;6.22;;;0.73;;
28772;SDS011;15925;51.222;5.678;2023-06-26T11:41:29;2.28;;;0.70;;
28772;SDS011;15925;51.222;5.678;2023-06-26T11:43:59;3.88;;;0.47;;
28772;SDS011;15925;51.222;5.678;2023-06-26T11:46:28;4.57;;;0.40;;
28772;SDS011;15925;51.222;5.678;2023-06-26T11:48:55;1.88;;;0.52;;
28772;SDS011;15925;51.222;5.678;2023-06-26T11:51:21;0.70;;;0.45;;
28772;SDS011;15925;51.222;5.678;2023-06-26T11:53:47;5.32;;;0.52;;
28772;SDS011;15925;51.222;5.678;2023-06-26T11:56:14;0.57;;;0.30;;
28772;SDS011;15925;51.222;5.678;2023-06-26T12:01:31;1.20;;;0.40;;
28772;SDS011;15925;51.222;5.678;2023-06-26T12:04:10;4.28;;;0.55;;
28772;SDS011;15925;51.222;5.678;2023-06-26T12:06:38;2.55;;;0.47;;
28772;SDS011;15925;51.222;5.678;2023-06-26T12:09:07;1.23;;;0.47;;
28772;SDS011;15925;51.222;5.678;2023-06-26T12:11:36;1.48;;;0.20;;
28772;SDS011;15925;51.222;5.678;2023-06-26T12:14:04;5.05;;;0.70;;
28772;SDS011;15925;51.222;5.678;2023-06-26T12:16:31;0.88;;;0.22;;
28772;SDS011;15925;51.222;5.678;2023-06-26T12:18:59;0.20;;;0.20;;
28772;SDS011;15925;51.222;5.678;2023-06-26T12:24:07;0.77;;;0.43;;
28772;SDS011;15925;51.222;5.678;2023-06-26T12:26:34;6.30;;;0.45;;
28772;SDS011;15925;51.222;5.678;2023-06-26T12:29:05;1.90;;;0.40;;
28772;SDS011;15925;51.222;5.678;2023-06-26T12:31:33;1.27;;;0.50;;
28772;SDS011;15925;51.222;5.678;2023-06-26T12:33:59;3.78;;;0.25;;
28772;SDS011;15925;51.222;5.678;2023-06-26T12:36:26;0.82;;;0.25;;
28772;SDS011;15925;51.222;5.678;2023-06-26T12:38:52;5.70;;;0.60;;
28772;SDS011;15925;51.222;5.678;2023-06-26T12:41:19;4.45;;;0.50;;
28772;SDS011;15925;51.222;5.678;2023-06-26T12:43:45;1.10;;;0.20;;
28772;SDS011;15925;51.222;5.678;2023-06-26T12:46:11;0.93;;;0.40;;
28772;SDS011;15925;51.222;5.678;2023-06-26T12:48:38;0.55;;;0.20;;
28772;SDS011;15925;51.222;5.678;2023-06-26T12:51:13;0.38;;;0.28;;
28772;SDS011;15925;51.222;5.678;2023-06-26T12:53:40;0.40;;;0.30;;
28772;SDS011;15925;51.222;5.678;2023-06-26T12:58:35;0.63;;;0.30;;
28772;SDS011;15925;51.222;5.678;2023-06-26T13:01:06;0.50;;;0.30;;
28772;SDS011;15925;51.222;5.678;2023-06-26T13:03:38;2.85;;;0.40;;
28772;SDS011;15925;51.222;5.678;2023-06-26T13:08:30;0.40;;;0.35;;
28772;SDS011;15925;51.222;5.678;2023-06-26T13:10:56;18.35;;;0.70;;
28772;SDS011;15925;51.222;5.678;2023-06-26T13:13:22;1.42;;;0.32;;
28772;SDS011;15925;51.222;5.678;2023-06-26T13:15:48;3.13;;;0.68;;
28772;SDS011;15925;51.222;5.678;2023-06-26T13:18:15;1.83;;;0.47;;
28772;SDS011;15925;51.222;5.678;2023-06-26T13:20:40;1.45;;;0.40;;
28772;SDS011;15925;51.222;5.678;2023-06-26T13:23:06;7.60;;;0.75;;
28772;SDS011;15925;51.222;5.678;2023-06-26T13:25:32;4.18;;;0.68;;
28772;SDS011;15925;51.222;5.678;2023-06-26T13:27:58;2.70;;;0.52;;
28772;SDS011;15925;51.222;5.678;2023-06-26T13:30:24;1.70;;;0.30;;
28772;SDS011;15925;51.222;5.678;2023-06-26T13:32:50;3.28;;;0.40;;
28772;SDS011;15925;51.222;5.678;2023-06-26T13:35:15;3.30;;;0.65;;
28772;SDS011;15925;51.222;5.678;2023-06-26T13:37:41;3.42;;;0.98;;
28772;SDS011;15925;51.222;5.678;2023-06-26T13:40:08;2.85;;;0.63;;
28772;SDS011;15925;51.222;5.678;2023-06-26T13:42:34;0.80;;;0.30;;
28772;SDS011;15925;51.222;5.678;2023-06-26T13:45:02;3.47;;;0.50;;
28772;SDS011;15925;51.222;5.678;2023-06-26T13:47:28;0.57;;;0.32;;
28772;SDS011;15925;51.222;5.678;2023-06-26T13:49:54;0.60;;;0.30;;
28772;SDS011;15925;51.222;5.678;2023-06-26T13:52:20;0.20;;;0.13;;
28772;SDS011;15925;51.222;5.678;2023-06-26T13:54:46;2.63;;;0.30;;
28772;SDS011;15925;51.222;5.678;2023-06-26T13:57:11;5.43;;;0.80;;
28772;SDS011;15925;51.222;5.678;2023-06-26T13:59:38;5.00;;;0.50;;
28772;SDS011;15925;51.222;5.678;2023-06-26T14:02:07;2.80;;;0.30;;
28772;SDS011;15925;51.222;5.678;2023-06-26T14:04:33;2.50;;;0.60;;
28772;SDS011;15925;51.222;5.678;2023-06-26T14:06:59;0.88;;;0.47;;
28772;SDS011;15925;51.222;5.678;2023-06-26T14:09:25;2.38;;;0.45;;
28772;SDS011;15925;51.222;5.678;2023-06-26T14:11:51;4.25;;;0.40;;
28772;SDS011;15925;51.222;5.678;2023-06-26T14:14:16;0.47;;;0.47;;
28772;SDS011;15925;51.222;5.678;2023-06-26T14:16:43;1.05;;;0.57;;
28772;SDS011;15925;51.222;5.678;2023-06-26T14:19:09;14.40;;;0.57;;
28772;SDS011;15925;51.222;5.678;2023-06-26T14:21:39;1.40;;;0.50;;
28772;SDS011;15925;51.222;5.678;2023-06-26T14:26:31;0.25;;;0.25;;
28772;SDS011;15925;51.222;5.678;2023-06-26T14:28:58;14.95;;;0.73;;
28772;SDS011;15925;51.222;5.678;2023-06-26T14:33:51;2.45;;;0.40;;
28772;SDS011;15925;51.222;5.678;2023-06-26T14:36:17;3.28;;;0.65;;
28772;SDS011;15925;51.222;5.678;2023-06-26T14:38:43;6.25;;;0.55;;
28772;SDS011;15925;51.222;5.678;2023-06-26T14:41:08;2.20;;;0.60;;
28772;SDS011;15925;51.222;5.678;2023-06-26T14:43:34;7.80;;;0.50;;
28772;SDS011;15925;51.222;5.678;2023-06-26T14:46:00;1.90;;;0.40;;
28772;SDS011;15925;51.222;5.678;2023-06-26T14:48:26;7.18;;;0.43;;
28772;SDS011;15925;51.222;5.678;2023-06-26T14:50:51;4.40;;;0.35;;
28772;SDS011;15925;51.222;5.678;2023-06-26T14:53:17;7.60;;;0.68;;
28772;SDS011;15925;51.222;5.678;2023-06-26T14:55:43;3.38;;;0.30;;
28772;SDS011;15925;51.222;5.678;2023-06-26T14:58:09;1.48;;;0.55;;
28772;SDS011;15925;51.222;5.678;2023-06-26T15:00:35;1.05;;;0.40;;
28772;SDS011;15925;51.222;5.678;2023-06-26T15:03:01;2.57;;;1.07;;
28772;SDS011;15925;51.222;5.678;2023-06-26T15:05:27;2.17;;;0.52;;
28772;SDS011;15925;51.222;5.678;2023-06-26T15:07:52;0.68;;;0.40;;
28772;SDS011;15925;51.222;5.678;2023-06-26T15:10:18;1.65;;;0.38;;
28772;SDS011;15925;51.222;5.678;2023-06-26T15:12:44;0.93;;;0.22;;
28772;SDS011;15925;51.222;5.678;2023-06-26T15:15:10;0.85;;;0.45;;
28772;SDS011;15925;51.222;5.678;2023-06-26T15:17:36;1.40;;;0.32;;
28772;SDS011;15925;51.222;5.678;2023-06-26T15:20:02;1.47;;;0.50;;
28772;SDS011;15925;51.222;5.678;2023-06-26T15:22:28;0.85;;;0.20;;
28772;SDS011;15925;51.222;5.678;2023-06-26T15:24:54;0.95;;;0.50;;
28772;SDS011;15925;51.222;5.678;2023-06-26T15:27:20;1.30;;;0.63;;
28772;SDS011;15925;51.222;5.678;2023-06-26T15:29:46;0.88;;;0.43;;
28772;SDS011;15925;51.222;5.678;2023-06-26T15:32:12;2.92;;;0.28;;